createdAt,value
2022-12-13T00:00:19.347Z,2.43
2022-12-13T00:02:47.069Z,2.42
2022-12-13T00:05:15.225Z,2.41
2022-12-13T00:07:43.221Z,2.41
2022-12-13T00:10:11.259Z,2.40
2022-12-13T00:12:38.948Z,2.34
2022-12-13T00:15:09.488Z,2.33
2022-12-13T00:20:05.823Z,2.29
2022-12-13T00:22:33.456Z,2.28
2022-12-13T00:25:01.224Z,2.26
2022-12-13T00:27:28.969Z,2.25
2022-12-13T00:29:56.642Z,2.25
2022-12-13T00:32:25.686Z,2.23
2022-12-13T00:34:54.493Z,2.22
2022-12-13T00:37:22.185Z,2.22
2022-12-13T00:39:49.947Z,2.17
2022-12-13T00:42:17.594Z,2.19
2022-12-13T00:44:45.362Z,2.13
2022-12-13T00:47:13.011Z,2.16
2022-12-13T00:49:42.364Z,2.07
2022-12-13T00:52:10.086Z,2.13
2022-12-13T00:54:37.843Z,2.12
2022-12-13T00:57:05.490Z,2.09
2022-12-13T00:59:33.305Z,2.11
2022-12-13T01:02:01.065Z,1.93
2022-12-13T01:04:28.894Z,2.07
2022-12-13T01:06:57.886Z,2.05
2022-12-13T01:09:27.298Z,2.04
2022-12-13T01:11:57.643Z,2.02
2022-12-13T01:14:25.386Z,1.96
2022-12-13T01:16:55.803Z,2.00
2022-12-13T01:19:23.802Z,1.98
2022-12-13T01:21:51.649Z,1.98
2022-12-13T01:24:25.923Z,1.97
2022-12-13T01:26:56.958Z,1.95
2022-12-13T01:29:25.925Z,1.92
2022-12-13T01:31:54.216Z,1.73
2022-12-13T01:34:26.625Z,1.73
2022-12-13T01:36:58.373Z,1.85
2022-12-13T01:39:28.162Z,1.86
2022-12-13T01:41:59.554Z,1.86
2022-12-13T01:45:09.986Z,1.85
2022-12-13T01:47:39.993Z,1.77
2022-12-13T01:50:09.379Z,1.72
2022-12-13T01:52:37.035Z,1.75
2022-12-13T01:55:07.475Z,1.69
2022-12-13T01:57:36.192Z,1.49
2022-12-13T02:00:05.070Z,1.70
2022-12-13T02:02:32.712Z,1.68
2022-12-13T02:05:05.034Z,1.61
2022-12-13T02:07:33.890Z,1.55
2022-12-13T02:10:02.500Z,1.64
2022-12-13T02:12:32.162Z,1.39
2022-12-13T02:15:00.596Z,1.63
2022-12-13T02:17:30.910Z,1.60
2022-12-13T02:20:13.458Z,1.57
2022-12-13T02:23:01.067Z,1.55
2022-12-13T02:25:42.922Z,1.42
2022-12-13T02:28:31.463Z,1.51
2022-12-13T02:31:03.371Z,1.48
2022-12-13T02:33:40.104Z,1.54
2022-12-13T02:36:10.361Z,1.34
2022-12-13T02:38:40.768Z,1.51
2022-12-13T02:41:14.402Z,1.42
2022-12-13T02:43:46.876Z,1.49
2022-12-13T02:46:17.335Z,1.49
2022-12-13T02:48:45.142Z,1.48
2022-12-13T02:51:13.111Z,1.37
2022-12-13T02:53:41.559Z,1.37
2022-12-13T02:56:09.643Z,1.45
2022-12-13T02:58:39.650Z,1.36
2022-12-13T03:01:27.810Z,1.19
2022-12-13T03:04:02.610Z,1.36
2022-12-13T03:06:34.129Z,1.36
2022-12-13T03:09:14.186Z,1.32
2022-12-13T03:12:11.848Z,1.31
2022-12-13T03:14:40.755Z,1.29
2022-12-13T03:17:10.146Z,1.24
2022-12-13T03:19:38.273Z,1.26
2022-12-13T03:22:06.977Z,1.23
2022-12-13T03:24:34.996Z,1.27
2022-12-13T03:27:02.907Z,1.25
2022-12-13T03:29:31.278Z,1.25
2022-12-13T03:31:59.219Z,1.24
2022-12-13T03:34:43.253Z,1.21
2022-12-13T03:37:12.807Z,1.22
2022-12-13T03:39:40.704Z,1.19
2022-12-13T03:42:08.619Z,1.18
2022-12-13T03:44:36.567Z,1.16
2022-12-13T03:47:04.542Z,1.16
2022-12-13T03:49:35.093Z,1.14
2022-12-13T03:52:03.587Z,1.14
2022-12-13T03:54:31.498Z,1.14
2022-12-13T03:56:59.982Z,1.08
2022-12-13T03:59:28.133Z,1.06
2022-12-13T04:01:56.047Z,1.06
2022-12-13T04:04:24.159Z,0.86
2022-12-13T04:06:53.416Z,1.02
2022-12-13T04:09:21.281Z,1.03
2022-12-13T04:12:06.955Z,1.00
2022-12-13T04:14:34.761Z,0.91
2022-12-13T04:17:02.694Z,0.91
2022-12-13T04:19:30.689Z,0.99
2022-12-13T04:21:59.910Z,0.96
2022-12-13T04:24:31.381Z,0.98
2022-12-13T04:27:00.688Z,0.98
2022-12-13T04:29:34.450Z,0.96
2022-12-13T04:32:03.540Z,0.89
2022-12-13T04:34:36.742Z,0.82
2022-12-13T04:37:06.748Z,0.92
2022-12-13T04:39:34.905Z,0.90
2022-12-13T04:42:02.839Z,0.88
2022-12-13T04:44:35.044Z,0.84
2022-12-13T04:47:04.915Z,0.83
2022-12-13T04:49:33.182Z,0.76
2022-12-13T04:52:02.173Z,0.83
2022-12-13T04:54:36.501Z,0.80
2022-12-13T04:57:07.749Z,0.78
2022-12-13T04:59:36.437Z,0.77
2022-12-13T05:02:05.005Z,0.77
2022-12-13T05:04:33.468Z,0.67
2022-12-13T05:07:01.613Z,0.74
2022-12-13T05:09:30.823Z,0.76
2022-12-13T05:12:01.823Z,0.63
2022-12-13T05:14:30.199Z,0.75
2022-12-13T05:16:58.254Z,0.75
2022-12-13T05:19:31.315Z,0.73
2022-12-13T05:22:01.455Z,0.73
2022-12-13T05:24:32.046Z,0.56
2022-12-13T05:27:00.071Z,0.68
2022-12-13T05:29:28.379Z,0.71
2022-12-13T05:31:56.458Z,0.72
2022-12-13T05:34:24.403Z,0.67
2022-12-13T05:36:52.397Z,0.69
2022-12-13T05:39:28.900Z,0.67
2022-12-13T05:42:01.451Z,0.33
2022-12-13T05:44:31.564Z,0.66
2022-12-13T05:47:02.354Z,0.59
2022-12-13T05:49:30.743Z,0.60
2022-12-13T05:51:58.759Z,0.60
2022-12-13T05:54:26.793Z,0.55
2022-12-13T05:56:54.819Z,0.52
2022-12-13T05:59:24.416Z,0.51
2022-12-13T06:01:52.441Z,0.43
2022-12-13T06:04:23.502Z,0.47
2022-12-13T06:06:52.042Z,0.47
2022-12-13T06:09:20.047Z,0.46
2022-12-13T06:11:49.170Z,0.46
2022-12-13T06:14:22.895Z,0.45
2022-12-13T06:19:20.990Z,0.44
2022-12-13T06:21:48.766Z,0.17
2022-12-13T06:24:16.959Z,0.37
2022-12-13T06:26:44.838Z,-0.27
2022-12-13T06:29:13.742Z,0.24
2022-12-13T06:32:01.981Z,0.38
2022-12-13T06:34:33.433Z,0.38
2022-12-13T06:37:01.612Z,0.09
2022-12-13T06:39:32.339Z,0.34
2022-12-13T06:42:07.910Z,0.22
2022-12-13T06:44:36.035Z,0.28
2022-12-13T06:47:11.129Z,0.06
2022-12-13T06:49:43.714Z,0.27
2022-12-13T06:52:13.164Z,0.27
2022-12-13T06:54:41.657Z,0.30
2022-12-13T06:57:09.442Z,0.30
2022-12-13T06:59:38.358Z,0.04
2022-12-13T07:02:06.327Z,-0.01
2022-12-13T07:04:53.775Z,0.05
2022-12-13T07:07:21.730Z,0.30
2022-12-13T07:09:49.568Z,0.31
2022-12-13T07:12:17.481Z,0.05
2022-12-13T07:14:45.173Z,0.27
2022-12-13T07:17:13.478Z,0.09
2022-12-13T07:20:03.603Z,0.28
2022-12-13T07:22:35.002Z,0.27
2022-12-13T07:25:05.371Z,0.23
2022-12-13T07:27:33.327Z,0.06
2022-12-13T07:30:01.244Z,0.28
2022-12-13T07:32:29.062Z,0.29
2022-12-13T07:34:59.700Z,0.23
2022-12-13T07:37:29.285Z,0.22
2022-12-13T07:40:03.377Z,0.34
2022-12-13T07:42:31.902Z,0.36
2022-12-13T07:44:59.883Z,0.37
2022-12-13T07:47:30.573Z,0.33
2022-12-13T07:49:58.617Z,-0.16
2022-12-13T07:52:27.846Z,0.34
2022-12-13T07:54:55.912Z,0.40
2022-12-13T07:57:23.594Z,0.47
2022-12-13T07:59:51.603Z,0.40
2022-12-13T08:02:19.393Z,0.50
2022-12-13T08:04:55.042Z,0.53
2022-12-13T08:07:23.274Z,0.35
2022-12-13T08:09:53.209Z,0.40
2022-12-13T08:12:23.002Z,0.62
2022-12-13T08:14:53.128Z,0.66
2022-12-13T08:17:22.046Z,0.66
2022-12-13T08:19:50.130Z,0.82
2022-12-13T08:22:23.719Z,1.36
2022-12-13T08:24:53.354Z,2.43
2022-12-13T08:27:21.346Z,3.65
2022-12-13T08:29:49.423Z,4.82
2022-12-13T08:32:18.314Z,5.84
2022-12-13T08:34:46.585Z,6.31
2022-12-13T08:37:14.931Z,7.30
2022-12-13T08:39:42.809Z,7.97
2022-12-13T08:42:16.099Z,8.73
2022-12-13T08:44:46.635Z,9.38
2022-12-13T08:47:23.291Z,9.94
2022-12-13T08:49:53.084Z,10.69
2022-12-13T08:52:22.536Z,11.34
2022-12-13T08:54:51.035Z,11.88
2022-12-13T08:57:20.153Z,12.28
2022-12-13T08:59:48.082Z,12.82
2022-12-13T09:02:16.298Z,12.88
2022-12-13T09:04:44.723Z,13.04
2022-12-13T09:07:12.444Z,13.37
2022-12-13T09:09:40.367Z,14.03
2022-12-13T09:12:10.685Z,14.41
2022-12-13T09:14:45.601Z,15.03
2022-12-13T09:17:24.774Z,15.40
2022-12-13T09:19:57.958Z,15.92
2022-12-13T09:22:33.427Z,16.41
2022-12-13T09:25:02.850Z,16.85
2022-12-13T09:27:31.195Z,17.11
2022-12-13T09:30:12.980Z,17.37
2022-12-13T09:32:41.667Z,17.94
2022-12-13T09:35:10.035Z,18.35
2022-12-13T09:37:44.109Z,18.96
2022-12-13T09:40:16.162Z,19.09
2022-12-13T09:43:11.877Z,19.15
2022-12-13T09:45:43.063Z,19.40
2022-12-13T09:48:22.562Z,19.11
2022-12-13T09:50:58.544Z,18.44
2022-12-13T09:53:39.134Z,18.14
2022-12-13T09:56:10.828Z,17.54
2022-12-13T09:58:39.051Z,17.15
2022-12-13T10:01:08.418Z,17.20
2022-12-13T10:03:36.141Z,17.03
2022-12-13T10:06:15.005Z,17.03
2022-12-13T10:08:57.320Z,17.51
2022-12-13T10:11:31.855Z,18.32
2022-12-13T10:14:03.146Z,18.99
2022-12-13T10:16:39.071Z,19.47
2022-12-13T10:19:28.373Z,18.93
2022-12-13T10:22:01.088Z,16.22
2022-12-13T10:24:36.837Z,16.60
2022-12-13T10:27:19.395Z,17.39
2022-12-13T10:30:10.990Z,17.56
2022-12-13T10:32:47.470Z,16.34
2022-12-13T10:35:47.496Z,15.99
2022-12-13T10:38:31.768Z,17.73
2022-12-13T10:41:01.043Z,17.95
2022-12-13T10:43:30.382Z,18.38
2022-12-13T10:45:59.427Z,18.98
2022-12-13T10:48:38.437Z,20.02
2022-12-13T10:51:07.753Z,20.64
2022-12-13T10:53:36.979Z,21.06
2022-12-13T10:56:04.966Z,21.59
2022-12-13T10:58:37.535Z,21.80
2022-12-13T11:01:13.230Z,21.06
2022-12-13T11:03:42.422Z,20.32
2022-12-13T11:06:13.912Z,19.69
2022-12-13T11:08:41.755Z,18.88
2022-12-13T11:11:10.004Z,18.39
2022-12-13T11:13:39.309Z,18.68
2022-12-13T11:16:18.020Z,20.05
2022-12-13T11:18:49.152Z,21.72
2022-12-13T11:21:18.178Z,23.12
2022-12-13T11:23:45.914Z,24.30
2022-12-13T11:26:24.016Z,25.30
2022-12-13T11:29:07.329Z,25.69
2022-12-13T11:31:37.776Z,26.62
2022-12-13T11:34:18.400Z,27.32
2022-12-13T11:36:49.613Z,27.45
2022-12-13T11:39:23.050Z,27.03
2022-12-13T11:41:55.367Z,26.06
2022-12-13T11:44:30.465Z,25.75
2022-12-13T11:46:59.557Z,24.82
2022-12-13T11:49:34.676Z,24.63
2022-12-13T11:52:03.947Z,24.44
2022-12-13T11:54:34.553Z,24.82
2022-12-13T11:57:04.865Z,26.22
2022-12-13T11:59:39.657Z,26.81
2022-12-13T12:02:16.345Z,27.90
2022-12-13T12:04:47.982Z,28.47
2022-12-13T12:07:33.582Z,29.00
2022-12-13T12:10:06.494Z,28.98
2022-12-13T12:12:34.740Z,30.00
2022-12-13T12:15:15.202Z,29.75
2022-12-13T12:20:23.941Z,29.71
2022-12-13T12:22:56.028Z,30.17
2022-12-13T12:25:26.623Z,30.00
2022-12-13T12:27:58.944Z,29.48
2022-12-13T12:30:27.947Z,29.36
2022-12-13T12:32:58.701Z,28.76
2022-12-13T12:35:59.660Z,27.90
2022-12-13T12:38:40.222Z,27.42
2022-12-13T12:41:25.758Z,27.05
2022-12-13T12:43:55.881Z,26.42
2022-12-13T12:46:42.341Z,26.01
2022-12-13T12:49:48.590Z,25.15
2022-12-13T12:52:21.307Z,24.40
2022-12-13T12:54:52.762Z,23.42
2022-12-13T12:57:23.804Z,22.20
2022-12-13T13:00:01.659Z,20.68
2022-12-13T13:02:32.844Z,19.33
2022-12-13T13:05:03.798Z,18.17
2022-12-13T13:07:39.728Z,17.07
2022-12-13T13:10:16.329Z,16.02
2022-12-13T13:12:53.661Z,15.11
2022-12-13T13:16:01.847Z,14.28
2022-12-13T13:18:50.386Z,13.63
2022-12-13T13:21:42.424Z,13.02
2022-12-13T13:24:17.335Z,12.69
2022-12-13T13:26:45.618Z,12.35
2022-12-13T13:29:35.531Z,11.76
2022-12-13T13:32:29.128Z,11.25
2022-12-13T13:35:18.257Z,10.94
2022-12-13T13:37:47.190Z,10.76
2022-12-13T13:40:34.247Z,10.58
2022-12-13T13:43:17.441Z,10.38
2022-12-13T13:45:55.026Z,10.11
2022-12-13T13:48:38.823Z,9.79
2022-12-13T13:52:08.638Z,9.53
2022-12-13T13:54:54.006Z,9.33
2022-12-13T14:00:48.766Z,8.96
2022-12-13T14:03:43.743Z,8.73
2022-12-13T14:06:38.151Z,8.74
2022-12-13T14:09:15.708Z,8.68
2022-12-13T14:12:11.051Z,8.64
2022-12-13T14:15:06.499Z,8.53
2022-12-13T14:18:21.974Z,8.44
2022-12-13T14:21:19.329Z,8.32
2022-12-13T14:23:55.063Z,7.97
2022-12-13T14:26:34.072Z,7.89
2022-12-13T14:29:03.529Z,8.04
2022-12-13T14:31:36.256Z,7.90
2022-12-13T14:34:05.040Z,7.62
2022-12-13T14:36:35.296Z,7.92
2022-12-13T14:39:03.176Z,7.92
2022-12-13T14:41:30.991Z,7.90
2022-12-13T14:44:16.178Z,7.83
2022-12-13T14:46:55.659Z,7.45
2022-12-13T14:49:24.250Z,7.73
2022-12-13T14:52:00.220Z,7.64
2022-12-13T14:54:30.098Z,7.49
2022-12-13T14:56:59.237Z,7.48
2022-12-13T14:59:27.056Z,7.35
2022-12-13T15:01:58.936Z,7.13
2022-12-13T15:04:28.204Z,7.22
2022-12-13T15:06:58.662Z,6.91
2022-12-13T15:09:28.871Z,7.14
2022-12-13T15:12:01.378Z,7.10
2022-12-13T15:14:43.536Z,6.99
2022-12-13T15:17:31.145Z,6.97
2022-12-13T15:19:58.963Z,6.97
2022-12-13T15:22:29.431Z,6.94
2022-12-13T15:24:57.935Z,6.91
2022-12-13T15:27:26.676Z,6.88
2022-12-13T15:29:54.536Z,6.90
2022-12-13T15:32:24.101Z,6.87
2022-12-13T15:34:52.121Z,6.86
2022-12-13T15:37:28.135Z,6.81
2022-12-13T15:39:58.702Z,6.59
2022-12-13T15:42:30.768Z,6.54
2022-12-13T15:44:59.572Z,6.71
2022-12-13T15:47:29.329Z,6.67
2022-12-13T15:49:58.270Z,6.68
2022-12-13T15:52:36.521Z,6.35
2022-12-13T15:55:28.728Z,6.52
2022-12-13T15:57:57.215Z,6.46
2022-12-13T16:00:31.365Z,6.36
2022-12-13T16:03:09.271Z,6.42
2022-12-13T16:05:38.788Z,6.36
2022-12-13T16:08:13.505Z,6.33
2022-12-13T16:10:46.593Z,6.30
2022-12-13T16:13:25.677Z,6.24
2022-12-13T16:15:59.961Z,6.20
2022-12-13T16:18:44.583Z,6.18
2022-12-13T16:21:12.387Z,6.16
2022-12-13T16:23:48.870Z,6.12
2022-12-13T16:26:21.455Z,6.11
2022-12-13T16:28:49.142Z,6.12
2022-12-13T16:31:18.913Z,5.86
2022-12-13T16:33:48.142Z,6.11
2022-12-13T16:36:15.927Z,5.70
2022-12-13T16:38:43.586Z,6.12
2022-12-13T16:41:11.280Z,5.88
2022-12-13T16:43:40.534Z,6.03
2022-12-13T16:47:11.779Z,6.09
2022-12-13T16:48:57.462Z,6.06
2022-12-13T16:51:25.155Z,6.05
2022-12-13T16:53:53.093Z,6.00
2022-12-13T16:56:21.681Z,5.98
2022-12-13T16:58:50.509Z,5.93
2022-12-13T17:01:20.031Z,5.76
2022-12-13T17:03:47.985Z,5.86
2022-12-13T17:06:17.785Z,5.87
2022-12-13T17:08:45.453Z,5.79
2022-12-13T17:11:17.844Z,5.87
2022-12-13T17:13:47.697Z,5.86
2022-12-13T17:16:16.566Z,5.83
2022-12-13T17:18:44.590Z,5.76
2022-12-13T17:21:12.326Z,5.79
2022-12-13T17:23:42.479Z,5.74
2022-12-13T17:26:11.666Z,5.76
2022-12-13T17:28:39.538Z,5.72
2022-12-13T17:31:07.735Z,5.67
2022-12-13T17:33:36.507Z,5.65
2022-12-13T17:36:04.356Z,5.62
2022-12-13T17:38:32.023Z,5.37
2022-12-13T17:41:01.128Z,5.60
2022-12-13T17:43:36.077Z,5.59
2022-12-13T17:46:04.344Z,5.24
2022-12-13T17:48:39.197Z,5.55
2022-12-13T17:51:08.300Z,5.46
2022-12-13T17:53:37.142Z,5.26
2022-12-13T17:56:08.856Z,5.42
2022-12-13T17:58:37.682Z,5.40
2022-12-13T18:01:11.883Z,5.33
2022-12-13T18:03:39.923Z,5.42
2022-12-13T18:06:11.757Z,5.42
2022-12-13T18:08:40.319Z,5.41
2022-12-13T18:13:57.252Z,5.42
2022-12-13T18:16:30.317Z,5.42
2022-12-13T18:18:59.811Z,5.41
2022-12-13T18:21:28.534Z,5.40
2022-12-13T18:23:56.461Z,5.41
2022-12-13T18:26:25.766Z,5.39
2022-12-13T18:28:53.499Z,4.94
2022-12-13T18:31:22.498Z,5.18
2022-12-13T18:33:50.892Z,5.33
2022-12-13T18:36:18.921Z,5.35
2022-12-13T18:38:46.614Z,5.31
2022-12-13T18:41:16.478Z,5.32
2022-12-13T18:43:46.747Z,5.30
2022-12-13T18:46:15.145Z,4.93
2022-12-13T18:48:43.066Z,5.24
2022-12-13T18:51:11.139Z,5.10
2022-12-13T18:53:39.556Z,5.19
2022-12-13T18:56:12.908Z,5.03
2022-12-13T18:58:46.902Z,5.11
2022-12-13T19:01:15.870Z,5.08
2022-12-13T19:03:48.630Z,4.28
2022-12-13T19:06:17.756Z,4.98
2022-12-13T19:08:48.731Z,4.97
2022-12-13T19:11:17.336Z,4.92
2022-12-13T19:13:53.613Z,4.90
2022-12-13T19:16:23.021Z,4.89
2022-12-13T19:18:51.215Z,4.84
2022-12-13T19:21:21.023Z,4.11
2022-12-13T19:23:56.464Z,3.91
2022-12-13T19:26:29.570Z,4.84
2022-12-13T19:29:04.416Z,3.66
2022-12-13T19:31:32.827Z,2.76
2022-12-13T19:34:01.769Z,3.99
2022-12-13T19:36:37.743Z,4.40
2022-12-13T19:39:05.952Z,2.51
2022-12-13T19:41:33.970Z,3.98
2022-12-13T19:44:05.092Z,4.02
2022-12-13T19:46:33.138Z,3.67
2022-12-13T19:49:01.624Z,3.55
2022-12-13T19:51:34.446Z,3.88
2022-12-13T19:54:11.093Z,4.68
2022-12-13T19:56:39.171Z,4.68
2022-12-13T19:59:08.375Z,4.66
2022-12-13T20:01:36.369Z,4.65
2022-12-13T20:04:05.229Z,4.62
2022-12-13T20:06:33.214Z,4.63
2022-12-13T20:09:01.632Z,4.63
2022-12-13T20:11:29.951Z,4.62
2022-12-13T20:13:57.798Z,4.65
2022-12-13T20:16:27.328Z,4.63
2022-12-13T20:18:56.769Z,4.64
2022-12-13T20:21:24.711Z,4.60
2022-12-13T20:23:52.887Z,4.65
2022-12-13T20:26:21.911Z,4.62
2022-12-13T20:28:49.810Z,4.68
2022-12-13T20:31:18.410Z,4.67
2022-12-13T20:33:48.069Z,4.68
2022-12-13T20:36:25.530Z,4.68
2022-12-13T20:38:55.188Z,4.64
2022-12-13T20:41:22.984Z,4.66
2022-12-13T20:43:52.342Z,4.62
2022-12-13T20:46:20.243Z,4.65
2022-12-13T20:48:49.838Z,4.68
2022-12-13T20:51:19.029Z,4.68
2022-12-13T20:53:47.712Z,4.74
2022-12-13T20:56:16.319Z,4.70
2022-12-13T20:58:44.269Z,4.67
2022-12-13T21:01:15.248Z,4.65
2022-12-13T21:03:43.160Z,4.74
2022-12-13T21:06:12.598Z,4.71
2022-12-13T21:08:52.772Z,4.71
2022-12-13T21:11:26.328Z,4.73
2022-12-13T21:13:55.924Z,4.68
2022-12-13T21:16:23.907Z,4.72
2022-12-13T21:18:53.925Z,4.65
2022-12-13T21:21:23.075Z,4.68
2022-12-13T21:23:50.737Z,4.61
2022-12-13T21:26:18.903Z,4.55
2022-12-13T21:28:47.509Z,4.69
2022-12-13T21:31:16.351Z,4.70
2022-12-13T21:33:44.043Z,4.60
2022-12-13T21:36:12.914Z,4.74
2022-12-13T21:38:42.084Z,4.75
2022-12-13T21:41:10.002Z,4.72
2022-12-13T21:43:37.874Z,4.75
2022-12-13T21:46:07.688Z,4.75
2022-12-13T21:48:35.726Z,4.72
2022-12-13T21:51:03.468Z,4.70
2022-12-13T21:53:31.126Z,4.63
2022-12-13T21:56:16.836Z,4.64
2022-12-13T21:59:02.172Z,4.59
2022-12-13T22:01:50.183Z,4.55
2022-12-13T22:04:17.980Z,4.57
2022-12-13T22:06:45.734Z,4.55
2022-12-13T22:09:13.369Z,4.56
2022-12-13T22:11:42.700Z,4.55
2022-12-13T22:14:10.400Z,4.55
2022-12-13T22:16:38.171Z,4.52
2022-12-13T22:19:05.848Z,4.44
2022-12-13T22:21:33.696Z,4.49
2022-12-13T22:24:01.339Z,4.51
2022-12-13T22:26:29.118Z,4.43
2022-12-13T22:28:59.342Z,4.46
2022-12-13T22:31:29.874Z,4.47
2022-12-13T22:33:57.998Z,4.47
2022-12-13T22:36:25.913Z,4.40
2022-12-13T22:38:53.735Z,4.42
2022-12-13T22:41:21.591Z,4.42
2022-12-13T22:43:49.289Z,4.41
2022-12-13T22:46:20.082Z,4.28
2022-12-13T22:48:47.755Z,4.39
2022-12-13T22:51:16.308Z,4.36
2022-12-13T22:53:45.235Z,4.32
2022-12-13T22:56:14.090Z,4.33
2022-12-13T22:58:41.994Z,4.34
2022-12-13T23:01:10.697Z,4.33
2022-12-13T23:03:40.078Z,4.27
2022-12-13T23:06:09.326Z,4.28
2022-12-13T23:08:41.841Z,4.31
2022-12-13T23:11:28.798Z,4.33
2022-12-13T23:13:57.362Z,4.26
2022-12-13T23:16:26.002Z,4.27
2022-12-13T23:19:16.998Z,4.26
2022-12-13T23:21:42.767Z,4.29
2022-12-13T23:24:16.473Z,4.30
2022-12-13T23:26:45.245Z,4.31
2022-12-13T23:29:15.862Z,4.25
2022-12-13T23:31:48.666Z,4.36
2022-12-13T23:34:18.040Z,4.35
2022-12-13T23:36:45.709Z,4.37
2022-12-13T23:39:13.375Z,4.31
2022-12-13T23:41:43.222Z,4.37
2022-12-13T23:44:13.144Z,4.33
2022-12-13T23:46:40.877Z,4.31
2022-12-13T23:49:08.687Z,4.37
2022-12-13T23:51:38.379Z,4.39
2022-12-13T23:54:07.503Z,4.40
2022-12-13T23:56:35.375Z,4.35
2022-12-13T23:59:03.154Z,4.38
